DAL63 LFPG-CYHZ
Flight info
| Callsign | DAL63 |
|---|---|
| Flight time | N/A |
| Altitude | 38000 |
| Route | ELCOB UT300 SENLO DCT JSY DCT LIZAD DCT LESLU DCT TOBOR/M083F390 DCT 5230N02000W 5130N03000W 50N040W 4830N05000W DCT MUSAK/N0470F400 DCT TIGOR Q846 NOTOP DCT CAYLY CABOT5 |
| Aircraft | B772/H-SDE2E3FGHIJ5LORVWXY/LB1D1 |
Departure
| Time | 2026-05-07 20:37 |
|---|---|
| Airport | Charles de Gaulle International Airport (LFPG) |
Arrival
| Time | N/A |
|---|---|
| Airport | Halifax / Stanfield International Airport (CYHZ) |
| Time | Latitude | Longitude | Altitude | Speed | Heading |
|---|---|---|---|---|---|
| 2026-05-07 19:59 | 49.00311 | 2.59209 | 359 ft | 0 kts | 265° |
| 2026-05-07 20:26 | 49.00311 | 2.59213 | 359 ft | 2 kts | 265° |
| 2026-05-07 20:26 | 49.00314 | 2.59253 | 359 ft | 4 kts | 265° |
| 2026-05-07 20:26 | 49.00317 | 2.59293 | 359 ft | 4 kts | 265° |
| 2026-05-07 20:26 | 49.00319 | 2.59328 | 359 ft | 4 kts | 247° |
| 2026-05-07 20:27 | 49.00331 | 2.59345 | 360 ft | 4 kts | 166° |
| 2026-05-07 20:27 | 49.00357 | 2.59334 | 362 ft | 3 kts | 173° |
| 2026-05-07 20:27 | 49.00360 | 2.59333 | 363 ft | 0 kts | 175° |
| 2026-05-07 20:31 | 49.00337 | 2.59332 | 362 ft | 11 kts | 186° |
| 2026-05-07 20:31 | 49.00276 | 2.59331 | 364 ft | 11 kts | 162° |
| 2026-05-07 20:31 | 49.00178 | 2.59356 | 361 ft | 17 kts | 175° |
| 2026-05-07 20:31 | 49.00068 | 2.59311 | 363 ft | 19 kts | 242° |
| 2026-05-07 20:32 | 49.00052 | 2.59060 | 363 ft | 27 kts | 265° |
| 2026-05-07 20:32 | 49.00036 | 2.58786 | 359 ft | 24 kts | 266° |
| 2026-05-07 20:32 | 49.00022 | 2.58538 | 359 ft | 23 kts | 265° |
| 2026-05-07 20:32 | 49.00010 | 2.58290 | 363 ft | 23 kts | 265° |
| 2026-05-07 20:33 | 48.99996 | 2.58042 | 359 ft | 23 kts | 265° |
| 2026-05-07 20:33 | 48.99985 | 2.57795 | 364 ft | 23 kts | 264° |
| 2026-05-07 20:33 | 48.99970 | 2.57547 | 359 ft | 23 kts | 265° |
| 2026-05-07 20:33 | 48.99956 | 2.57300 | 360 ft | 23 kts | 265° |
| 2026-05-07 20:34 | 48.99947 | 2.57136 | 365 ft | 23 kts | 265° |
| 2026-05-07 20:34 | 48.99931 | 2.56817 | 359 ft | 20 kts | 265° |
| 2026-05-07 20:34 | 48.99919 | 2.56602 | 364 ft | 20 kts | 266° |
| 2026-05-07 20:34 | 48.99910 | 2.56405 | 363 ft | 16 kts | 267° |
| 2026-05-07 20:35 | 48.99902 | 2.56241 | 365 ft | 16 kts | 265° |
| 2026-05-07 20:35 | 48.99895 | 2.56130 | 359 ft | 16 kts | 264° |
| 2026-05-07 20:35 | 48.99881 | 2.56036 | 367 ft | 5 kts | 224° |
| 2026-05-07 20:35 | 48.99847 | 2.56017 | 350 ft | 5 kts | 198° |
| 2026-05-07 20:36 | 48.99813 | 2.55981 | 366 ft | 7 kts | 232° |
| 2026-05-07 20:36 | 48.99791 | 2.55897 | 363 ft | 13 kts | 252° |
| 2026-05-07 20:36 | 48.99669 | 2.55818 | 366 ft | 28 kts | 171° |
| 2026-05-07 20:36 | 48.99615 | 2.56102 | 367 ft | 58 kts | 85° |
| 2026-05-07 20:37 | 48.99676 | 2.57230 | 359 ft | 153 kts | 84° |
| 2026-05-07 20:37 | 48.99766 | 2.59157 | 790 ft | 198 kts | 85° |
| 2026-05-07 20:37 | 48.99909 | 2.61286 | 1771 ft | 206 kts | 85° |
| 2026-05-07 20:37 | 49.00036 | 2.63492 | 2709 ft | 212 kts | 87° |
| 2026-05-07 20:38 | 49.00143 | 2.65756 | 3543 ft | 218 kts | 86° |
| 2026-05-07 20:38 | 49.00259 | 2.68085 | 4310 ft | 224 kts | 86° |
| 2026-05-07 20:38 | 49.00382 | 2.70468 | 5085 ft | 228 kts | 86° |
| 2026-05-07 20:38 | 49.00501 | 2.72906 | 5824 ft | 234 kts | 86° |
| 2026-05-07 20:39 | 49.00623 | 2.75394 | 6568 ft | 237 kts | 86° |
| 2026-05-07 20:39 | 49.00686 | 2.77887 | 7204 ft | 240 kts | 97° |
| 2026-05-07 20:39 | 49.00002 | 2.80220 | 7627 ft | 252 kts | 135° |
| 2026-05-07 20:39 | 48.98520 | 2.81671 | 7950 ft | 257 kts | 162° |
| 2026-05-07 20:40 | 48.96764 | 2.82190 | 8216 ft | 259 kts | 181° |
| 2026-05-07 20:40 | 48.95011 | 2.81751 | 8406 ft | 254 kts | 205° |
| 2026-05-07 20:40 | 48.93514 | 2.80404 | 8698 ft | 249 kts | 223° |
| 2026-05-07 20:40 | 48.92486 | 2.78343 | 8974 ft | 246 kts | 245° |
| 2026-05-07 20:41 | 48.91734 | 2.75884 | 9275 ft | 266 kts | 245° |
| 2026-05-07 20:41 | 48.90935 | 2.73301 | 10001 ft | 273 kts | 245° |
| 2026-05-07 20:41 | 48.90107 | 2.70635 | 10531 ft | 288 kts | 245° |
| 2026-05-07 20:41 | 48.89210 | 2.67761 | 10722 ft | 314 kts | 245° |
| 2026-05-07 20:42 | 48.88247 | 2.64707 | 11085 ft | 333 kts | 245° |
| 2026-05-07 20:42 | 48.87227 | 2.61490 | 11771 ft | 342 kts | 244° |
| 2026-05-07 20:42 | 48.86184 | 2.58212 | 12582 ft | 348 kts | 244° |
| 2026-05-07 20:42 | 48.85125 | 2.54887 | 13478 ft | 351 kts | 244° |
| 2026-05-07 20:43 | 48.84054 | 2.51527 | 14292 ft | 356 kts | 244° |
| 2026-05-07 20:43 | 48.82970 | 2.48126 | 15054 ft | 360 kts | 244° |
| 2026-05-07 20:43 | 48.81876 | 2.44697 | 15838 ft | 363 kts | 244° |
| 2026-05-07 20:43 | 48.80970 | 2.41128 | 16449 ft | 367 kts | 258° |
| 2026-05-07 20:44 | 48.80668 | 2.37266 | 17101 ft | 372 kts | 266° |
| 2026-05-07 20:44 | 48.80552 | 2.33333 | 17847 ft | 374 kts | 268° |
| 2026-05-07 20:44 | 48.80667 | 2.29428 | 18540 ft | 378 kts | 276° |
| 2026-05-07 20:44 | 48.81015 | 2.25472 | 19133 ft | 381 kts | 277° |
| 2026-05-07 20:45 | 48.81418 | 2.21475 | 19714 ft | 385 kts | 278° |
| 2026-05-07 20:45 | 48.81833 | 2.17450 | 20309 ft | 388 kts | 277° |
| 2026-05-07 20:45 | 48.82246 | 2.13375 | 20864 ft | 393 kts | 277° |
| 2026-05-07 20:45 | 48.82652 | 2.09261 | 21439 ft | 396 kts | 277° |
| 2026-05-07 20:46 | 48.83052 | 2.05111 | 22017 ft | 399 kts | 277° |
| 2026-05-07 20:46 | 48.83448 | 2.00922 | 22584 ft | 402 kts | 277° |
| 2026-05-07 20:46 | 48.83841 | 1.96701 | 23146 ft | 406 kts | 277° |
| 2026-05-07 20:46 | 48.84233 | 1.92443 | 23692 ft | 409 kts | 277° |
| 2026-05-07 20:47 | 48.84626 | 1.88150 | 24162 ft | 412 kts | 276° |
| 2026-05-07 20:47 | 48.85018 | 1.83834 | 24652 ft | 414 kts | 276° |
| 2026-05-07 20:47 | 48.85406 | 1.79545 | 25137 ft | 416 kts | 276° |
| 2026-05-07 20:47 | 48.85799 | 1.75185 | 25615 ft | 419 kts | 276° |
| 2026-05-07 20:48 | 48.86193 | 1.70784 | 26044 ft | 423 kts | 276° |
| 2026-05-07 20:48 | 48.86590 | 1.66340 | 26475 ft | 426 kts | 276° |
| 2026-05-07 20:48 | 48.86988 | 1.61865 | 26950 ft | 428 kts | 276° |
| 2026-05-07 20:48 | 48.87386 | 1.57370 | 27414 ft | 431 kts | 276° |
| 2026-05-07 20:49 | 48.87784 | 1.52847 | 27872 ft | 433 kts | 276° |
| 2026-05-07 20:49 | 48.88184 | 1.48297 | 28321 ft | 436 kts | 276° |
| 2026-05-07 20:49 | 48.88583 | 1.43719 | 28744 ft | 439 kts | 276° |
| 2026-05-07 20:49 | 48.88978 | 1.39175 | 29175 ft | 441 kts | 276° |
| 2026-05-07 20:50 | 48.89380 | 1.34532 | 29594 ft | 444 kts | 276° |
| 2026-05-07 20:50 | 48.89782 | 1.29865 | 30005 ft | 447 kts | 276° |
| 2026-05-07 20:50 | 48.90184 | 1.25162 | 30296 ft | 451 kts | 276° |
| 2026-05-07 20:50 | 48.90589 | 1.20412 | 30632 ft | 453 kts | 276° |
| 2026-05-07 20:51 | 48.90993 | 1.15653 | 30985 ft | 455 kts | 276° |
| 2026-05-07 20:51 | 48.91396 | 1.10878 | 31307 ft | 457 kts | 276° |
| 2026-05-07 20:51 | 48.91799 | 1.06067 | 31593 ft | 459 kts | 276° |
| 2026-05-07 20:51 | 48.92203 | 1.01241 | 31867 ft | 461 kts | 276° |
| 2026-05-07 20:52 | 48.92607 | 0.96377 | 31973 ft | 466 kts | 275° |
| 2026-05-07 20:52 | 48.93409 | 0.86649 | 32047 ft | 466 kts | 275° |
| 2026-05-07 20:53 | 48.94203 | 0.76927 | 32033 ft | 462 kts | 275° |
| 2026-05-07 20:53 | 48.94986 | 0.67225 | 32034 ft | 463 kts | 275° |
| 2026-05-07 20:54 | 48.95762 | 0.57502 | 32033 ft | 463 kts | 275° |
| 2026-05-07 20:54 | 48.96531 | 0.47767 | 32030 ft | 463 kts | 275° |
| 2026-05-07 20:55 | 48.97287 | 0.38091 | 32034 ft | 464 kts | 275° |
| 2026-05-07 20:55 | 48.98041 | 0.28329 | 32027 ft | 464 kts | 275° |
| 2026-05-07 20:56 | 48.98787 | 0.18563 | 32028 ft | 465 kts | 275° |
| 2026-05-07 20:56 | 48.99525 | 0.08787 | 32027 ft | 465 kts | 275° |
| 2026-05-07 20:57 | 49.00255 | -0.00994 | 32035 ft | 465 kts | 275° |
| 2026-05-07 20:57 | 49.00973 | -0.10728 | 32033 ft | 466 kts | 275° |
| 2026-05-07 20:58 | 49.01688 | -0.20538 | 32038 ft | 467 kts | 275° |
| 2026-05-07 20:58 | 49.02397 | -0.30371 | 32043 ft | 467 kts | 274° |
| 2026-05-07 20:59 | 49.03096 | -0.40205 | 32044 ft | 467 kts | 274° |
| 2026-05-07 20:59 | 49.03788 | -0.50045 | 32045 ft | 467 kts | 274° |
| 2026-05-07 21:00 | 49.04465 | -0.59809 | 32039 ft | 466 kts | 274° |
| 2026-05-07 21:00 | 49.05139 | -0.69645 | 32042 ft | 466 kts | 274° |
| 2026-05-07 21:01 | 49.05803 | -0.79466 | 32035 ft | 466 kts | 274° |
| 2026-05-07 21:01 | 49.06458 | -0.89294 | 32034 ft | 466 kts | 274° |
| 2026-05-07 21:02 | 49.07104 | -0.99138 | 32023 ft | 467 kts | 274° |
| 2026-05-07 21:02 | 49.07739 | -1.08932 | 32030 ft | 468 kts | 274° |
| 2026-05-07 21:03 | 49.08461 | -1.18788 | 32026 ft | 468 kts | 278° |
| 2026-05-07 21:03 | 49.09984 | -1.28451 | 32026 ft | 468 kts | 283° |
| 2026-05-07 21:04 | 49.11596 | -1.38079 | 32035 ft | 469 kts | 282° |
| 2026-05-07 21:04 | 49.13167 | -1.47746 | 32023 ft | 469 kts | 282° |
| 2026-05-07 21:05 | 49.14702 | -1.57356 | 32024 ft | 469 kts | 282° |
| 2026-05-07 21:05 | 49.16237 | -1.67039 | 32024 ft | 469 kts | 282° |